Island Lookout — WDF6311 — position and weather

sailwx.info

Track history (hours):
 
Tides and Currents Weather Stations Pressure Air Temp Water Temp Dewpoint Dewpoint Depression Visibility Wind Speed Wind Dir Waves Ship Positions

Island Lookout

Owner: Stevens Towing Company Inc., Yonges Island, SC. More information available from US FCC via Universal Licensing System and Coast Guard Vessel Documentation Center.

Last reported at 2014-Sep-30 23:22 UTC. Time now 2014-Oct-01 16:19 UTC.
Position N 38°60' W 076°23'.

Length 22 m; draft 2.9 m.

Type: Towing. MMSI: 367472930.

Date/timePositionNaut miles runAvg speedWind from/ knotsBaromVisibWave heightAir tempDewpointWater temp
2014-Sep-30 23:22N 38°60' W 076°23'12 6.4
2014-Sep-30 21:34N 39°11' W 076°27'6 6.2
2014-Sep-30 20:33N 39°15' W 076°33'2 1.9
2014-Sep-30 19:34N 39°16' W 076°35'0 0.0
2014-Sep-30 18:33N 39°16' W 076°35'0 0.0
2014-Sep-30 17:33N 39°16' W 076°35'0 0.0
2014-Sep-30 16:34N 39°16' W 076°35'0 0.0
2014-Sep-30 15:34N 39°16' W 076°35'0 0.0
2014-Sep-30 14:33N 39°16' W 076°35'0 0.0
2014-Sep-30 13:33N 39°16' W 076°35'0 0.0
2014-Sep-30 12:33N 39°16' W 076°35'0 0.0
2014-Sep-30 11:34N 39°16' W 076°35'0 0.0
2014-Sep-30 10:33N 39°16' W 076°35'0 0.0
2014-Sep-30 09:33N 39°16' W 076°35'0 0.0
2014-Sep-30 08:33N 39°16' W 076°35'0 0.0
2014-Sep-30 07:33N 39°16' W 076°35'4 4.3
2014-Sep-30 06:33N 39°13' W 076°31'7 6.7
2014-Sep-30 05:33N 39°09' W 076°24'8 7.3
2014-Sep-30 04:30N 39°01' W 076°22'11 7.6
2014-Sep-30 03:07N 38°51' W 076°26'12 7.5
2014-Sep-30 01:33N 38°39' W 076°27'96 6.8
2014-Sep-29 11:19N 37°03' W 076°14'17 6.1
2014-Sep-29 08:34N 36°47' W 076°19'5 1.0
2014-Sep-29 04:07N 36°43' W 076°15'2 3.0
2014-Sep-29 03:20N 36°43' W 076°12'4 5.3
2014-Sep-29 02:33N 36°43' W 076°07'5 4.6
2014-Sep-29 01:33N 36°40' W 076°04'5 5.3
2014-Sep-29 00:33N 36°34' W 076°02'6 6.0
2014-Sep-28 23:33N 36°29' W 076°00'41 2.3
2014-Sep-28 05:29N 35°59' W 076°36'54 1.7
2014-Sep-26 22:32N 36°51' W 076°18'6 6.2
2014-Sep-26 21:31N 36°57' W 076°20'5 4.7
2014-Sep-26 20:31N 37°01' W 076°16'5 5.6
2014-Sep-26 19:32N 37°06' W 076°13'112 6.2
2014-Sep-26 01:28N 38°57' W 076°24'13 5.6
2014-Sep-25 23:04N 39°11' W 076°26'3 6.1
2014-Sep-25 22:34N 39°12' W 076°30'4 3.8
2014-Sep-25 21:33N 39°12' W 076°35'0 0.0
2014-Sep-25 20:33N 39°12' W 076°35'0 0.0
2014-Sep-25 19:33N 39°12' W 076°35'0 0.0
2014-Sep-25 18:33N 39°12' W 076°35'0 0.0
2014-Sep-25 17:33N 39°12' W 076°35'0 0.0
2014-Sep-25 16:33N 39°12' W 076°35'0 0.0
2014-Sep-25 15:33N 39°12' W 076°35'0 0.0
2014-Sep-25 14:33N 39°12' W 076°35'0 0.0
2014-Sep-25 13:33N 39°12' W 076°35'0 0.1
2014-Sep-25 12:33N 39°12' W 076°35'0 0.0
2014-Sep-25 11:31N 39°12' W 076°35'0 0.0
2014-Sep-25 10:33N 39°12' W 076°35'0 0.0
2014-Sep-25 09:34N 39°12' W 076°35'0 0.0
2014-Sep-25 08:29N 39°12' W 076°35'0 0.0
2014-Sep-25 07:28N 39°12' W 076°35'0 0.0
2014-Sep-25 06:33N 39°12' W 076°35'0 0.0
2014-Sep-25 05:33N 39°12' W 076°35'0 0.0
2014-Sep-25 04:33N 39°12' W 076°35'0 0.0
2014-Sep-25 03:34N 39°12' W 076°35'0 0.0
2014-Sep-25 02:34N 39°12' W 076°35'0 0.0
2014-Sep-25 01:33N 39°12' W 076°35'0 0.0
2014-Sep-25 00:33N 39°12' W 076°35'0 0.0
2014-Sep-24 23:34N 39°12' W 076°35'0 0.0
2014-Sep-24 22:33N 39°12' W 076°35'0 0.0
2014-Sep-24 21:33N 39°12' W 076°35'0 0.0
2014-Sep-24 20:33N 39°12' W 076°35'0 0.0
2014-Sep-24 19:33N 39°12' W 076°35'0 0.0
2014-Sep-24 18:34N 39°12' W 076°35'0 0.0
2014-Sep-24 17:33N 39°12' W 076°35'0 0.0
2014-Sep-24 16:33N 39°12' W 076°35'0 0.0
2014-Sep-24 15:33N 39°12' W 076°35'0 0.0
2014-Sep-24 14:34N 39°12' W 076°35'0 0.0
2014-Sep-24 13:33N 39°12' W 076°35'0 0.0
2014-Sep-24 12:34N 39°12' W 076°35'2 1.5
2014-Sep-24 11:34N 39°13' W 076°34'4 3.9
2014-Sep-24 10:33N 39°17' W 076°36'0 0.0
2014-Sep-24 09:34N 39°17' W 076°36'0 0.0
2014-Sep-24 08:33N 39°17' W 076°36'0 0.0
2014-Sep-24 07:33N 39°17' W 076°36'0 0.0
2014-Sep-24 06:33N 39°17' W 076°36'0 0.0
2014-Sep-24 05:34N 39°17' W 076°36'0 0.0
2014-Sep-24 04:34N 39°17' W 076°36'0 0.0
2014-Sep-24 03:34N 39°17' W 076°36'0 0.0
2014-Sep-24 02:34N 39°17' W 076°36'0 0.0
2014-Sep-24 01:34N 39°17' W 076°36'0 0.0
2014-Sep-24 00:33N 39°17' W 076°36'0 0.0
2014-Sep-23 23:34N 39°17' W 076°36'0 0.0
2014-Sep-23 22:33N 39°17' W 076°36'0 0.0
2014-Sep-23 21:34N 39°17' W 076°36'2 1.8
2014-Sep-23 20:33N 39°15' W 076°34'3 3.2
2014-Sep-23 19:34N 39°12' W 076°35'0 0.0
2014-Sep-23 18:33N 39°12' W 076°35'0 0.0
2014-Sep-23 17:34N 39°12' W 076°35'0 0.0
2014-Sep-23 16:33N 39°12' W 076°35'0 0.0
2014-Sep-23 15:34N 39°12' W 076°35'0 0.0
2014-Sep-23 14:33N 39°12' W 076°35'0 0.0
2014-Sep-23 13:34N 39°12' W 076°35'0 0.0
2014-Sep-23 12:34N 39°12' W 076°35'0 0.0
2014-Sep-23 11:33N 39°12' W 076°35'0 0.0
2014-Sep-23 10:33N 39°12' W 076°35'0 0.0
2014-Sep-23 09:33N 39°12' W 076°35'0 0.0
2014-Sep-23 08:33N 39°12' W 076°35'0 0.1
2014-Sep-23 07:33N 39°12' W 076°35'3 2.7
2014-Sep-23 06:33N 39°13' W 076°31'6 5.7
2014-Sep-23 05:33N 39°12' W 076°24'9 0.3
2014-Sep-21 20:06N 39°17' W 076°14'10 6.5
2014-Sep-21 18:33N 39°08' W 076°20'6 6.3
2014-Sep-21 17:33N 39°02' W 076°22'6 5.9
2014-Sep-21 16:29N 38°55' W 076°24'18 6.0
2014-Sep-21 13:24N 38°37' W 076°28'19 5.8
2014-Sep-21 10:08N 38°19' W 076°20'68 6.5
2014-Sep-20 23:33N 37°11' W 076°08'  
Track history (hours):
 
Tides and Currents Weather Stations Pressure Air Temp Water Temp Dewpoint Dewpoint Depression Visibility Wind Speed Wind Dir Waves Ship Positions

Island Lookout

Owner: Stevens Towing Company Inc., Yonges Island, SC. More information available from US FCC via Universal Licensing System and Coast Guard Vessel Documentation Center.

Last reported at 2014-Sep-30 23:22 UTC. Time now 2014-Oct-01 16:19 UTC.
Position N 38°60' W 076°23'.

Length 22 m; draft 2.9 m.

Type: Towing. MMSI: 367472930.

Date/timePositionNaut miles runAvg speedWind from/ knotsBaromVisibWave heightAir tempDewpointWater temp
2014-Sep-30 23:22N 38°60' W 076°23'12 6.4
2014-Sep-30 21:34N 39°11' W 076°27'6 6.2
2014-Sep-30 20:33N 39°15' W 076°33'2 1.9
2014-Sep-30 19:34N 39°16' W 076°35'0 0.0
2014-Sep-30 18:33N 39°16' W 076°35'0 0.0
2014-Sep-30 17:33N 39°16' W 076°35'0 0.0
2014-Sep-30 16:34N 39°16' W 076°35'0 0.0
2014-Sep-30 15:34N 39°16' W 076°35'0 0.0
2014-Sep-30 14:33N 39°16' W 076°35'0 0.0
2014-Sep-30 13:33N 39°16' W 076°35'0 0.0
2014-Sep-30 12:33N 39°16' W 076°35'0 0.0
2014-Sep-30 11:34N 39°16' W 076°35'0 0.0
2014-Sep-30 10:33N 39°16' W 076°35'0 0.0
2014-Sep-30 09:33N 39°16' W 076°35'0 0.0
2014-Sep-30 08:33N 39°16' W 076°35'0 0.0
2014-Sep-30 07:33N 39°16' W 076°35'4 4.3
2014-Sep-30 06:33N 39°13' W 076°31'7 6.7
2014-Sep-30 05:33N 39°09' W 076°24'8 7.3
2014-Sep-30 04:30N 39°01' W 076°22'11 7.6
2014-Sep-30 03:07N 38°51' W 076°26'12 7.5
2014-Sep-30 01:33N 38°39' W 076°27'96 6.8
2014-Sep-29 11:19N 37°03' W 076°14'17 6.1
2014-Sep-29 08:34N 36°47' W 076°19'5 1.0
2014-Sep-29 04:07N 36°43' W 076°15'2 3.0
2014-Sep-29 03:20N 36°43' W 076°12'4 5.3
2014-Sep-29 02:33N 36°43' W 076°07'5 4.6
2014-Sep-29 01:33N 36°40' W 076°04'5 5.3
2014-Sep-29 00:33N 36°34' W 076°02'6 6.0
2014-Sep-28 23:33N 36°29' W 076°00'41 2.3
2014-Sep-28 05:29N 35°59' W 076°36'54 1.7
2014-Sep-26 22:32N 36°51' W 076°18'6 6.2
2014-Sep-26 21:31N 36°57' W 076°20'5 4.7
2014-Sep-26 20:31N 37°01' W 076°16'5 5.6
2014-Sep-26 19:32N 37°06' W 076°13'112 6.2
2014-Sep-26 01:28N 38°57' W 076°24'13 5.6
2014-Sep-25 23:04N 39°11' W 076°26'3 6.1
2014-Sep-25 22:34N 39°12' W 076°30'4 3.8
2014-Sep-25 21:33N 39°12' W 076°35'0 0.0
2014-Sep-25 20:33N 39°12' W 076°35'0 0.0
2014-Sep-25 19:33N 39°12' W 076°35'0 0.0
2014-Sep-25 18:33N 39°12' W 076°35'0 0.0
2014-Sep-25 17:33N 39°12' W 076°35'0 0.0
2014-Sep-25 16:33N 39°12' W 076°35'0 0.0
2014-Sep-25 15:33N 39°12' W 076°35'0 0.0
2014-Sep-25 14:33N 39°12' W 076°35'0 0.0
2014-Sep-25 13:33N 39°12' W 076°35'0 0.1
2014-Sep-25 12:33N 39°12' W 076°35'0 0.0
2014-Sep-25 11:31N 39°12' W 076°35'0 0.0
2014-Sep-25 10:33N 39°12' W 076°35'0 0.0
2014-Sep-25 09:34N 39°12' W 076°35'0 0.0
2014-Sep-25 08:29N 39°12' W 076°35'0 0.0
2014-Sep-25 07:28N 39°12' W 076°35'0 0.0
2014-Sep-25 06:33N 39°12' W 076°35'0 0.0
2014-Sep-25 05:33N 39°12' W 076°35'0 0.0
2014-Sep-25 04:33N 39°12' W 076°35'0 0.0
2014-Sep-25 03:34N 39°12' W 076°35'0 0.0
2014-Sep-25 02:34N 39°12' W 076°35'0 0.0
2014-Sep-25 01:33N 39°12' W 076°35'0 0.0
2014-Sep-25 00:33N 39°12' W 076°35'0 0.0
2014-Sep-24 23:34N 39°12' W 076°35'0 0.0
2014-Sep-24 22:33N 39°12' W 076°35'0 0.0
2014-Sep-24 21:33N 39°12' W 076°35'0 0.0
2014-Sep-24 20:33N 39°12' W 076°35'0 0.0
2014-Sep-24 19:33N 39°12' W 076°35'0 0.0
2014-Sep-24 18:34N 39°12' W 076°35'0 0.0
2014-Sep-24 17:33N 39°12' W 076°35'0 0.0
2014-Sep-24 16:33N 39°12' W 076°35'0 0.0
2014-Sep-24 15:33N 39°12' W 076°35'0 0.0
2014-Sep-24 14:34N 39°12' W 076°35'0 0.0
2014-Sep-24 13:33N 39°12' W 076°35'0 0.0
2014-Sep-24 12:34N 39°12' W 076°35'2 1.5
2014-Sep-24 11:34N 39°13' W 076°34'4 3.9
2014-Sep-24 10:33N 39°17' W 076°36'0 0.0
2014-Sep-24 09:34N 39°17' W 076°36'0 0.0
2014-Sep-24 08:33N 39°17' W 076°36'0 0.0
2014-Sep-24 07:33N 39°17' W 076°36'0 0.0
2014-Sep-24 06:33N 39°17' W 076°36'0 0.0
2014-Sep-24 05:34N 39°17' W 076°36'0 0.0
2014-Sep-24 04:34N 39°17' W 076°36'0 0.0
2014-Sep-24 03:34N 39°17' W 076°36'0 0.0
2014-Sep-24 02:34N 39°17' W 076°36'0 0.0
2014-Sep-24 01:34N 39°17' W 076°36'0 0.0
2014-Sep-24 00:33N 39°17' W 076°36'0 0.0
2014-Sep-23 23:34N 39°17' W 076°36'0 0.0
2014-Sep-23 22:33N 39°17' W 076°36'0 0.0
2014-Sep-23 21:34N 39°17' W 076°36'2 1.8
2014-Sep-23 20:33N 39°15' W 076°34'3 3.2
2014-Sep-23 19:34N 39°12' W 076°35'0 0.0
2014-Sep-23 18:33N 39°12' W 076°35'0 0.0
2014-Sep-23 17:34N 39°12' W 076°35'0 0.0
2014-Sep-23 16:33N 39°12' W 076°35'0 0.0
2014-Sep-23 15:34N 39°12' W 076°35'0 0.0
2014-Sep-23 14:33N 39°12' W 076°35'0 0.0
2014-Sep-23 13:34N 39°12' W 076°35'0 0.0
2014-Sep-23 12:34N 39°12' W 076°35'0 0.0
2014-Sep-23 11:33N 39°12' W 076°35'0 0.0
2014-Sep-23 10:33N 39°12' W 076°35'0 0.0
2014-Sep-23 09:33N 39°12' W 076°35'0 0.0
2014-Sep-23 08:33N 39°12' W 076°35'0 0.1
2014-Sep-23 07:33N 39°12' W 076°35'3 2.7
2014-Sep-23 06:33N 39°13' W 076°31'6 5.7
2014-Sep-23 05:33N 39°12' W 076°24'9 0.3
2014-Sep-21 20:06N 39°17' W 076°14'10 6.5
2014-Sep-21 18:33N 39°08' W 076°20'6 6.3
2014-Sep-21 17:33N 39°02' W 076°22'6 5.9
2014-Sep-21 16:29N 38°55' W 076°24'18 6.0
2014-Sep-21 13:24N 38°37' W 076°28'19 5.8
2014-Sep-21 10:08N 38°19' W 076°20'68 6.5
2014-Sep-20 23:33N 37°11' W 076°08'  

Dump ship's entire track history